createdAt,value
2022-10-16T00:02:22.190Z,6.50
2022-10-16T00:07:26.982Z,6.70
2022-10-16T00:12:30.186Z,5.20
2022-10-16T00:17:33.169Z,6.10
2022-10-16T00:22:37.474Z,6.20
2022-10-16T00:27:40.408Z,4.50
2022-10-16T00:32:43.291Z,6.90
2022-10-16T00:37:47.625Z,6.63
2022-10-16T00:42:50.546Z,7.70
2022-10-16T00:47:56.206Z,8.40
2022-10-16T00:53:02.643Z,7.13
2022-10-16T00:58:05.581Z,7.10
2022-10-16T01:03:28.709Z,7.13
2022-10-16T01:08:40.766Z,6.97
2022-10-16T01:13:48.136Z,7.00
2022-10-16T01:18:56.562Z,7.30
2022-10-16T01:24:08.720Z,8.60
2022-10-16T01:29:19.966Z,7.87
2022-10-16T01:34:27.439Z,8.20
2022-10-16T01:39:33.942Z,8.17
2022-10-16T01:44:40.851Z,7.00
2022-10-16T01:49:45.920Z,6.83
2022-10-16T01:54:52.224Z,5.90
2022-10-16T02:00:00.581Z,5.30
2022-10-16T02:05:10.575Z,5.63
2022-10-16T02:10:13.752Z,3.97
2022-10-16T02:15:18.208Z,3.17
2022-10-16T02:20:27.292Z,4.90
2022-10-16T02:25:33.884Z,3.00
2022-10-16T02:30:42.773Z,7.50
2022-10-16T02:35:48.623Z,10.40
2022-10-16T02:40:51.683Z,36.80
2022-10-16T02:45:55.949Z,26.83
2022-10-16T02:50:58.901Z,18.50
2022-10-16T02:56:01.798Z,15.87
2022-10-16T03:01:06.430Z,11.97
2022-10-16T03:06:09.433Z,8.73
2022-10-16T03:11:12.359Z,5.70
2022-10-16T03:16:16.626Z,5.10
2022-10-16T03:21:19.508Z,11.33
2022-10-16T03:26:22.402Z,13.20
2022-10-16T03:31:26.724Z,12.87
2022-10-16T03:36:29.729Z,9.90
2022-10-16T03:41:32.639Z,8.87
2022-10-16T03:46:36.914Z,8.53
2022-10-16T03:51:39.847Z,8.63
2022-10-16T03:56:42.753Z,7.60
2022-10-16T04:01:47.010Z,8.07
2022-10-16T04:06:49.927Z,7.20
2022-10-16T04:11:52.827Z,6.00
2022-10-16T04:16:57.068Z,5.97
2022-10-16T04:22:00.081Z,5.67
2022-10-16T04:27:03.061Z,5.10
2022-10-16T04:32:07.408Z,3.70
2022-10-16T04:37:10.343Z,2.90
2022-10-16T04:42:13.457Z,5.57
2022-10-16T04:47:17.732Z,5.37
2022-10-16T04:52:22.573Z,3.80
2022-10-16T04:57:25.872Z,4.53
2022-10-16T05:02:30.387Z,4.50
2022-10-16T05:07:33.279Z,2.70
2022-10-16T05:12:36.143Z,4.97
2022-10-16T05:17:42.619Z,4.80
2022-10-16T05:22:47.687Z,4.90
2022-10-16T05:27:51.570Z,5.30
2022-10-16T05:32:55.861Z,5.00
2022-10-16T05:37:58.736Z,5.97
2022-10-16T05:43:01.707Z,7.90
2022-10-16T05:48:06.653Z,5.70
2022-10-16T05:53:09.551Z,6.70
2022-10-16T05:58:12.444Z,5.67
2022-10-16T06:03:16.684Z,5.67
2022-10-16T06:08:19.742Z,5.37
2022-10-16T06:13:22.666Z,6.37
2022-10-16T06:18:27.076Z,5.67
2022-10-16T06:23:31.254Z,5.37
2022-10-16T06:28:34.260Z,5.50
2022-10-16T06:33:39.507Z,6.23
2022-10-16T06:38:43.131Z,6.20
2022-10-16T06:43:46.766Z,5.97
2022-10-16T06:48:51.146Z,4.90
2022-10-16T06:54:05.039Z,5.93
2022-10-16T06:59:08.121Z,6.73
2022-10-16T07:04:12.399Z,5.53
2022-10-16T07:09:15.491Z,7.10
2022-10-16T07:14:20.882Z,5.40
2022-10-16T07:19:28.370Z,2.13
2022-10-16T07:24:33.736Z,1.47
2022-10-16T07:29:36.732Z,1.70
2022-10-16T07:34:41.264Z,3.50
2022-10-16T07:39:44.245Z,4.40
2022-10-16T07:44:47.243Z,5.10
2022-10-16T07:49:51.547Z,4.70
2022-10-16T07:59:58.633Z,2.90
2022-10-16T08:05:03.023Z,5.30
2022-10-16T08:10:07.462Z,25.33
2022-10-16T08:15:11.796Z,3.50
2022-10-16T08:20:16.248Z,4.60
2022-10-16T08:25:19.724Z,4.30
2022-10-16T08:30:25.135Z,4.17
2022-10-16T08:35:29.821Z,2.90
2022-10-16T08:40:35.341Z,2.50
2022-10-16T08:45:52.309Z,3.00
2022-10-16T08:50:56.864Z,4.30
2022-10-16T08:56:00.382Z,2.20
2022-10-16T09:01:05.859Z,2.13
2022-10-16T09:06:19.680Z,2.03
2022-10-16T09:11:36.329Z,1.50
2022-10-16T09:16:44.534Z,1.60
2022-10-16T09:21:49.330Z,1.40
2022-10-16T09:26:53.452Z,1.40
2022-10-16T09:32:08.465Z,1.20
2022-10-16T09:37:17.439Z,1.10
2022-10-16T09:42:22.575Z,1.00
2022-10-16T09:47:28.095Z,1.43
2022-10-16T09:52:33.229Z,1.10
2022-10-16T09:57:36.537Z,1.37
2022-10-16T10:02:40.769Z,1.10
2022-10-16T10:07:47.579Z,1.13
2022-10-16T10:12:50.600Z,1.30
2022-10-16T10:17:55.856Z,1.40
2022-10-16T10:23:00.568Z,1.33
2022-10-16T10:28:20.342Z,1.50
2022-10-16T10:33:30.829Z,1.30
2022-10-16T10:38:44.948Z,1.27
2022-10-16T10:44:00.874Z,1.27
2022-10-16T10:49:19.655Z,1.33
2022-10-16T10:54:31.772Z,1.30
2022-10-16T10:59:55.874Z,1.50
2022-10-16T11:05:25.319Z,1.10
2022-10-16T11:10:34.084Z,0.90
2022-10-16T11:15:39.923Z,1.10
2022-10-16T11:20:49.371Z,1.07
2022-10-16T11:25:56.192Z,1.00
2022-10-16T11:31:04.563Z,1.00
2022-10-16T11:36:13.678Z,1.00
2022-10-16T11:41:26.720Z,1.00
2022-10-16T11:46:29.933Z,1.03
2022-10-16T11:51:40.621Z,0.93
2022-10-16T11:56:48.275Z,1.20
2022-10-16T12:01:56.143Z,0.90
2022-10-16T12:07:06.084Z,1.30
2022-10-16T12:12:31.403Z,1.10
2022-10-16T12:17:39.638Z,1.13
2022-10-16T12:22:49.633Z,1.20
2022-10-16T12:28:02.989Z,1.00
2022-10-16T12:33:08.734Z,1.00
2022-10-16T12:38:19.705Z,0.77
2022-10-16T12:43:39.441Z,0.90
2022-10-16T12:49:05.244Z,1.00
2022-10-16T12:54:16.210Z,1.10
2022-10-16T12:59:31.464Z,1.10
2022-10-16T13:05:00.918Z,1.03
2022-10-16T13:10:17.548Z,1.10
2022-10-16T13:15:37.348Z,1.20
2022-10-16T13:20:56.260Z,1.50
2022-10-16T13:26:14.301Z,1.20
2022-10-16T13:31:23.822Z,1.30
2022-10-16T13:36:28.618Z,1.37
2022-10-16T13:41:31.552Z,1.23
2022-10-16T13:46:36.046Z,1.40
2022-10-16T13:51:39.076Z,1.33
2022-10-16T13:56:42.489Z,1.53
2022-10-16T14:01:46.980Z,1.30
2022-10-16T14:06:52.181Z,1.20
2022-10-16T14:11:58.864Z,1.07
2022-10-16T14:17:05.609Z,1.40
2022-10-16T14:22:32.063Z,1.10
2022-10-16T14:27:37.695Z,1.43
2022-10-16T14:32:43.258Z,1.27
2022-10-16T14:37:46.889Z,1.10
2022-10-16T14:42:50.074Z,2.87
2022-10-16T14:47:56.963Z,1.37
2022-10-16T14:53:00.946Z,1.70
2022-10-16T14:58:04.100Z,1.20
2022-10-16T15:03:08.434Z,1.77
2022-10-16T15:08:11.375Z,1.60
2022-10-16T15:13:15.126Z,5.33
2022-10-16T15:18:21.439Z,1.40
2022-10-16T15:28:32.752Z,1.60
2022-10-16T15:33:39.859Z,1.47
2022-10-16T15:38:43.198Z,1.57
2022-10-16T15:43:46.415Z,1.30
2022-10-16T15:48:53.076Z,1.80
2022-10-16T15:53:56.045Z,1.20
2022-10-16T15:58:59.355Z,1.60
2022-10-16T16:04:10.986Z,2.47
2022-10-16T16:09:18.519Z,2.87
2022-10-16T16:14:21.775Z,2.60
2022-10-16T16:19:26.141Z,3.20
2022-10-16T16:24:29.075Z,3.43
2022-10-16T16:29:32.151Z,3.07
2022-10-16T16:34:36.518Z,3.00
2022-10-16T16:39:39.527Z,3.70
2022-10-16T16:44:42.794Z,3.73
2022-10-16T16:49:47.693Z,4.33
2022-10-16T16:54:52.966Z,3.00
2022-10-16T16:59:56.129Z,4.57
2022-10-16T17:05:00.397Z,5.83
2022-10-16T17:10:03.513Z,2.50
2022-10-16T17:15:07.166Z,2.07
2022-10-16T17:20:12.135Z,14.07
2022-10-16T17:25:15.159Z,4.70
2022-10-16T17:30:18.436Z,3.60
2022-10-16T17:35:23.157Z,3.83
2022-10-16T17:40:27.116Z,6.53
2022-10-16T17:45:30.136Z,8.10
2022-10-16T17:50:34.525Z,6.73
2022-10-16T17:55:40.026Z,9.27
2022-10-16T18:00:42.952Z,9.90
2022-10-16T18:05:47.255Z,10.77
2022-10-16T18:10:51.298Z,10.67
2022-10-16T18:16:01.281Z,10.87
2022-10-16T18:21:07.394Z,10.20
2022-10-16T18:26:11.789Z,9.17
2022-10-16T18:31:17.028Z,7.77
2022-10-16T18:36:23.781Z,8.07
2022-10-16T18:41:28.186Z,7.33
2022-10-16T18:46:31.179Z,6.07
2022-10-16T18:51:37.792Z,6.13
2022-10-16T18:56:41.452Z,10.90
2022-10-16T19:01:44.521Z,8.10
2022-10-16T19:06:50.979Z,9.70
2022-10-16T19:11:54.438Z,7.90
2022-10-16T19:16:57.403Z,9.20
2022-10-16T19:22:14.220Z,8.70
2022-10-16T19:27:17.172Z,10.00
2022-10-16T19:32:20.103Z,10.77
2022-10-16T19:37:25.929Z,12.30
2022-10-16T19:42:29.147Z,11.53
2022-10-16T19:47:32.822Z,10.00
2022-10-16T19:52:38.280Z,9.53
2022-10-16T19:57:41.225Z,10.10
2022-10-16T20:02:44.301Z,9.20
2022-10-16T20:07:48.558Z,8.87
2022-10-16T20:12:51.466Z,8.73
2022-10-16T20:17:54.407Z,9.00
2022-10-16T20:22:58.692Z,8.20
2022-10-16T20:28:01.623Z,9.30
2022-10-16T20:33:04.803Z,9.73
2022-10-16T20:38:09.121Z,9.33
2022-10-16T20:43:13.998Z,8.40
2022-10-16T20:48:16.876Z,8.53
2022-10-16T20:53:21.206Z,8.37
2022-10-16T20:58:24.176Z,8.10
2022-10-16T21:03:27.178Z,8.60
2022-10-16T21:08:31.780Z,6.13
2022-10-16T21:13:34.678Z,7.23
2022-10-16T21:18:43.320Z,7.13
2022-10-16T21:23:48.951Z,6.60
2022-10-16T21:28:51.888Z,7.33
2022-10-16T21:33:55.345Z,6.60
2022-10-16T21:39:03.744Z,10.10
2022-10-16T21:44:07.909Z,7.17
2022-10-16T21:49:13.555Z,8.47
2022-10-16T21:54:19.921Z,7.27
2022-10-16T21:59:22.869Z,6.60
2022-10-16T22:04:25.815Z,7.30
2022-10-16T22:09:30.246Z,5.67
2022-10-16T22:14:33.173Z,5.70
2022-10-16T22:19:36.038Z,6.03
2022-10-16T22:24:40.278Z,5.80
2022-10-16T22:29:43.171Z,5.63
2022-10-16T22:34:46.283Z,5.30
2022-10-16T22:39:50.647Z,6.00
2022-10-16T22:44:53.572Z,6.73
2022-10-16T22:49:56.482Z,5.60
2022-10-16T22:55:00.756Z,7.10
2022-10-16T23:00:04.461Z,6.10
2022-10-16T23:05:08.539Z,5.70
2022-10-16T23:10:13.108Z,5.47
2022-10-16T23:15:16.165Z,5.60
2022-10-16T23:20:19.049Z,5.93
2022-10-16T23:25:23.339Z,5.30
2022-10-16T23:30:26.216Z,5.50
2022-10-16T23:35:29.104Z,5.20
2022-10-16T23:40:33.496Z,5.83
2022-10-16T23:45:36.645Z,5.60
2022-10-16T23:50:39.585Z,4.60
2022-10-16T23:55:44.448Z,4.80
